Rechercher aéroport 
image banner adimage banner adimage banner ad
image banner ad

CA24 - Scripps Memorial Hospital La Jolla

Situé à La Jolla, United States

ICAO - CA24, IATA -

Données fournies par Airmate  

Information générale

Coordonnées: N32°53'11" W117°13'32"
Élévation : 340 feet MSL.
 
Voir autres Aéroports à California

Données opérationnelles

Special qualification required
Heure actuelle UTC:
Heure actuelle locale:
Météo à : KNKX - Miramar Mcas ( 8 km )
METAR: KNKX 300055Z 32006KT 10SM CLR 27/12 A2987 RMK AO2 SLP110 T02670117
TAF: TAF KNKX 2921/3021 30010KT 9999 FEW250 QNH2985INS BECMG 3000/3002 VRB05KT 9999 SCT030 QNH2984INS FM300700 VRB05KT 8000 BR BKN007 QNH2988INS BECMG 3015/3017 VRB05KT 9999 SCT015 QNH2989INS FM302030 29009KT 9999 FEW020 SCT150 QNH2989INS T18/3013Z T28/3020Z
Voir NOTAMs / SUP AIP / TFR affectant cet aéroport [VIEW]
Fréquences de communication: [VIEW]

Pistes:

Coordonnées de l'aéroport

Adresse: La Jolla United States

Vue satellite de CA24